createdAt,value
2019-04-21T00:00:56.829Z,10.17
2019-04-21T00:03:27.564Z,10.18
2019-04-21T00:06:09.482Z,10.28
2019-04-21T00:08:56.526Z,10.12
2019-04-21T00:11:09.747Z,9.91
2019-04-21T00:13:33.184Z,9.94
2019-04-21T00:15:53.993Z,9.74
2019-04-21T00:18:38.412Z,9.76
2019-04-21T00:21:09.843Z,9.82
2019-04-21T00:23:42.486Z,9.85
2019-04-21T00:26:09.048Z,10.08
2019-04-21T00:28:58.130Z,10.07
2019-04-21T00:31:11.702Z,9.92
2019-04-21T00:33:30.018Z,9.86
2019-04-21T00:36:02.102Z,9.84
2019-04-21T00:38:51.856Z,9.79
2019-04-21T00:41:13.433Z,9.68
2019-04-21T00:43:37.489Z,9.66
2019-04-21T00:46:03.244Z,9.56
2019-04-21T00:48:42.457Z,9.68
2019-04-21T00:51:27.547Z,9.40
2019-04-21T00:53:51.180Z,9.46
2019-04-21T00:56:34.034Z,9.51
2019-04-21T00:58:49.862Z,9.49
2019-04-21T01:01:15.220Z,9.44
2019-04-21T01:03:46.224Z,9.43
2019-04-21T01:06:20.146Z,9.44
2019-04-21T01:08:41.374Z,9.29
2019-04-21T01:11:16.518Z,9.25
2019-04-21T01:13:45.568Z,9.10
2019-04-21T01:16:14.296Z,9.07
2019-04-21T01:18:41.012Z,8.96
2019-04-21T01:20:49.647Z,8.94
2019-04-21T01:23:17.320Z,9.02
2019-04-21T01:26:00.675Z,8.96
2019-04-21T01:28:29.055Z,8.82
2019-04-21T01:31:07.486Z,8.77
2019-04-21T01:33:39.845Z,8.78
2019-04-21T01:35:58.379Z,8.83
2019-04-21T01:38:35.703Z,8.91
2019-04-21T01:41:08.610Z,8.97
2019-04-21T01:43:27.588Z,8.98
2019-04-21T01:45:59.457Z,8.83
2019-04-21T01:48:26.724Z,8.80
2019-04-21T01:50:58.156Z,8.85
2019-04-21T01:53:36.804Z,8.85
2019-04-21T01:56:16.891Z,8.83
2019-04-21T01:58:42.805Z,8.61
2019-04-21T02:01:24.623Z,8.54
2019-04-21T02:06:21.262Z,8.28
2019-04-21T02:08:50.982Z,8.08
2019-04-21T02:11:26.414Z,7.72
2019-04-21T02:14:00.413Z,7.76
2019-04-21T02:16:18.198Z,7.79
2019-04-21T02:18:53.058Z,7.95
2019-04-21T02:21:09.476Z,7.87
2019-04-21T02:23:54.337Z,8.05
2019-04-21T02:26:19.111Z,8.11
2019-04-21T02:31:28.687Z,8.18
2019-04-21T02:39:10.471Z,7.98
2019-04-21T02:41:21.487Z,8.04
2019-04-21T02:44:02.526Z,8.06
2019-04-21T02:46:38.192Z,7.97
2019-04-21T02:48:56.421Z,7.86
2019-04-21T02:51:27.640Z,7.86
2019-04-21T02:54:28.768Z,7.69
2019-04-21T02:56:28.394Z,7.69
2019-04-21T03:04:18.449Z,7.81
2019-04-21T03:06:54.155Z,7.80
2019-04-21T03:09:20.536Z,7.58
2019-04-21T03:11:53.457Z,7.73
2019-04-21T03:14:33.186Z,7.61
2019-04-21T03:19:20.017Z,7.59
2019-04-21T03:21:50.644Z,7.46
2019-04-21T03:24:40.264Z,7.51
2019-04-21T03:26:52.313Z,7.52
2019-04-21T03:36:56.562Z,7.21
2019-04-21T03:39:09.520Z,7.19
2019-04-21T03:41:48.847Z,7.11
2019-04-21T03:44:14.519Z,7.23
2019-04-21T03:46:41.376Z,7.06
2019-04-21T03:49:12.480Z,7.16
2019-04-21T03:51:43.930Z,7.20
2019-04-21T03:59:09.971Z,6.93
2019-04-21T04:04:31.913Z,7.04
2019-04-21T04:07:04.435Z,7.06
2019-04-21T04:09:41.836Z,6.64
2019-04-21T04:14:32.687Z,6.37
2019-04-21T04:19:26.475Z,6.77
2019-04-21T04:22:06.023Z,6.88
2019-04-21T04:25:01.176Z,6.80
2019-04-21T04:29:26.304Z,6.76
2019-04-21T04:34:35.946Z,6.38
2019-04-21T04:37:17.393Z,6.62
2019-04-21T04:44:59.704Z,6.58
2019-04-21T04:47:07.341Z,6.49
2019-04-21T04:54:43.559Z,7.19
2019-04-21T04:57:13.851Z,7.25
2019-04-21T04:59:35.443Z,7.40
2019-04-21T05:02:00.236Z,7.49
2019-04-21T05:04:29.514Z,7.83
2019-04-21T05:09:21.470Z,8.55
2019-04-21T05:11:50.837Z,8.65
2019-04-21T05:17:02.344Z,8.47
2019-04-21T05:19:34.975Z,8.58
2019-04-21T05:22:06.815Z,8.56
2019-04-21T05:24:10.869Z,8.53
2019-04-21T05:26:40.214Z,8.69
2019-04-21T05:29:01.878Z,8.78
2019-04-21T05:31:50.679Z,8.76
2019-04-21T05:34:18.498Z,8.65
2019-04-21T05:36:52.048Z,8.67
2019-04-21T05:39:37.765Z,8.80
2019-04-21T05:42:00.794Z,8.64
2019-04-21T05:44:49.274Z,8.63
2019-04-21T05:47:20.595Z,8.78
2019-04-21T05:49:45.169Z,8.80
2019-04-21T05:52:09.461Z,9.11
2019-04-21T05:54:52.750Z,9.13
2019-04-21T05:57:14.365Z,9.35
2019-04-21T05:59:43.723Z,9.65
2019-04-21T06:02:23.937Z,9.77
2019-04-21T06:07:25.686Z,10.15
2019-04-21T06:09:51.352Z,10.29
2019-04-21T06:12:14.614Z,10.46
2019-04-21T06:14:52.075Z,10.58
2019-04-21T06:17:19.238Z,10.59
2019-04-21T06:22:07.633Z,11.14
2019-04-21T06:24:58.390Z,11.20
2019-04-21T06:27:26.313Z,11.43
2019-04-21T06:29:46.553Z,11.78
2019-04-21T06:34:59.124Z,12.79
2019-04-21T06:37:34.755Z,13.18
2019-04-21T06:40:03.179Z,14.02
2019-04-21T06:42:09.065Z,14.29
2019-04-21T06:44:50.031Z,14.18
2019-04-21T06:47:16.213Z,14.20
2019-04-21T06:49:40.475Z,14.00
2019-04-21T06:52:17.878Z,14.59
2019-04-21T06:54:45.596Z,14.82
2019-04-21T06:57:15.164Z,14.93
2019-04-21T06:59:31.997Z,15.34
2019-04-21T07:02:28.591Z,15.24
2019-04-21T07:04:46.941Z,14.72
2019-04-21T07:07:05.177Z,14.84
2019-04-21T07:09:41.286Z,15.28
2019-04-21T07:11:59.692Z,15.18
2019-04-21T07:14:49.921Z,14.83
2019-04-21T07:17:05.274Z,15.11
2019-04-21T07:19:35.241Z,15.54
2019-04-21T07:22:03.333Z,15.30
2019-04-21T07:24:31.272Z,15.21
2019-04-21T07:27:04.210Z,15.14
2019-04-21T07:29:34.486Z,15.27
2019-04-21T07:34:33.368Z,15.51
2019-04-21T07:37:12.688Z,15.73
2019-04-21T07:39:27.057Z,15.72
2019-04-21T07:41:54.084Z,15.60
2019-04-21T07:44:24.288Z,15.59
2019-04-21T07:46:46.324Z,15.85
2019-04-21T07:49:32.690Z,15.90
2019-04-21T07:52:22.282Z,15.86
2019-04-21T07:54:57.004Z,16.13
2019-04-21T07:57:11.296Z,16.03
2019-04-21T07:59:55.109Z,16.47
2019-04-21T08:02:20.186Z,16.74
2019-04-21T08:07:21.811Z,17.14
2019-04-21T08:09:41.224Z,17.00
2019-04-21T08:12:08.199Z,17.36
2019-04-21T08:14:43.965Z,17.67
2019-04-21T08:17:09.541Z,17.84
2019-04-21T08:19:35.876Z,17.89
2019-04-21T08:22:12.595Z,17.79
2019-04-21T08:24:43.843Z,18.17
2019-04-21T08:27:12.061Z,18.04
2019-04-21T08:29:44.677Z,18.31
2019-04-21T08:32:08.160Z,18.51
2019-04-21T08:34:49.349Z,18.46
2019-04-21T08:37:08.629Z,18.71
2019-04-21T08:39:43.602Z,18.96
2019-04-21T08:42:03.342Z,19.06
2019-04-21T08:47:06.049Z,19.18
2019-04-21T08:49:39.270Z,19.40
2019-04-21T08:52:28.420Z,19.33
2019-04-21T08:54:32.325Z,19.58
2019-04-21T08:57:12.999Z,19.67
2019-04-21T08:59:45.966Z,19.95
2019-04-21T09:02:26.054Z,20.15
2019-04-21T09:04:49.104Z,20.27
2019-04-21T09:07:21.317Z,19.83
2019-04-21T09:09:48.383Z,20.15
2019-04-21T09:12:17.780Z,20.47
2019-04-21T09:14:41.849Z,20.52
2019-04-21T09:17:07.168Z,20.26
2019-04-21T09:19:51.468Z,20.25
2019-04-21T09:22:12.222Z,20.50
2019-04-21T09:24:42.824Z,20.56
2019-04-21T09:27:10.173Z,20.66
2019-04-21T09:29:31.022Z,20.64
2019-04-21T09:31:54.484Z,20.64
2019-04-21T09:34:25.612Z,20.69
2019-04-21T09:36:54.447Z,20.97
2019-04-21T09:39:22.626Z,21.10
2019-04-21T09:41:53.473Z,21.07
2019-04-21T09:44:25.446Z,20.95
2019-04-21T09:46:50.602Z,20.67
2019-04-21T09:49:22.491Z,21.06
2019-04-21T09:51:46.364Z,21.05
2019-04-21T09:54:22.354Z,21.10
2019-04-21T09:56:51.057Z,20.77
2019-04-21T09:59:20.786Z,20.95
2019-04-21T10:01:57.500Z,20.98
2019-04-21T10:04:11.994Z,21.15
2019-04-21T10:06:39.804Z,21.17
2019-04-21T10:09:10.225Z,21.31
2019-04-21T10:11:37.621Z,21.24
2019-04-21T10:14:05.573Z,21.28
2019-04-21T10:16:38.610Z,21.57
2019-04-21T10:19:06.931Z,21.72
2019-04-21T10:21:35.974Z,21.70
2019-04-21T10:24:04.156Z,21.79
2019-04-21T10:26:33.249Z,21.69
2019-04-21T10:29:08.274Z,21.65
2019-04-21T10:31:30.424Z,21.45
2019-04-21T10:33:58.922Z,21.38
2019-04-21T10:36:26.905Z,21.57
2019-04-21T10:38:55.736Z,21.43
2019-04-21T10:41:23.994Z,21.66
2019-04-21T10:43:51.652Z,21.86
2019-04-21T10:46:19.311Z,22.11
2019-04-21T10:48:46.985Z,22.23
2019-04-21T10:51:14.936Z,21.96
2019-04-21T10:53:45.032Z,22.27
2019-04-21T10:56:21.861Z,22.32
2019-04-21T10:58:44.556Z,22.06
2019-04-21T11:01:18.835Z,22.17
2019-04-21T11:03:53.103Z,22.30
2019-04-21T11:06:21.119Z,22.37
2019-04-21T11:08:52.182Z,22.26
2019-04-21T11:11:19.623Z,22.02
2019-04-21T11:13:48.455Z,22.12
2019-04-21T11:16:17.248Z,21.96
2019-04-21T11:18:46.095Z,22.06
2019-04-21T11:21:13.855Z,21.87
2019-04-21T11:23:41.501Z,21.88
2019-04-21T11:26:09.981Z,22.11
2019-04-21T11:28:38.923Z,21.92
2019-04-21T11:31:07.049Z,21.65
2019-04-21T11:33:35.606Z,22.18
2019-04-21T11:36:03.611Z,22.26
2019-04-21T11:38:59.780Z,21.57
2019-04-21T11:41:12.177Z,21.72
2019-04-21T11:43:41.258Z,21.47
2019-04-21T11:46:10.658Z,21.77
2019-04-21T11:48:39.873Z,21.62
2019-04-21T11:51:08.915Z,21.85
2019-04-21T11:53:36.990Z,21.68
2019-04-21T11:56:04.900Z,21.58
2019-04-21T11:58:33.747Z,21.71
2019-04-21T12:01:03.340Z,21.74
2019-04-21T12:03:31.701Z,21.72
2019-04-21T12:05:59.617Z,21.88
2019-04-21T12:08:35.034Z,21.78
2019-04-21T12:10:57.742Z,21.65
2019-04-21T12:13:25.603Z,21.54
2019-04-21T12:15:53.275Z,22.05
2019-04-21T12:18:22.238Z,22.05
2019-04-21T12:20:51.609Z,21.83
2019-04-21T12:23:20.452Z,21.85
2019-04-21T12:25:49.517Z,21.93
2019-04-21T12:28:17.473Z,21.78
2019-04-21T12:30:47.373Z,21.84
2019-04-21T12:33:22.234Z,21.37
2019-04-21T12:35:51.476Z,21.77
2019-04-21T12:38:30.177Z,21.98
2019-04-21T12:40:48.707Z,22.01
2019-04-21T12:43:16.771Z,21.71
2019-04-21T12:45:44.605Z,21.58
2019-04-21T12:48:13.733Z,21.74
2019-04-21T12:50:41.744Z,21.77
2019-04-21T12:53:12.598Z,22.03
2019-04-21T12:55:42.788Z,22.04
2019-04-21T12:58:08.372Z,22.22
2019-04-21T13:00:36.778Z,22.01
2019-04-21T13:03:05.723Z,21.91
2019-04-21T13:05:33.773Z,21.91
2019-04-21T13:08:01.703Z,22.11
2019-04-21T13:10:30.546Z,22.04
2019-04-21T13:12:59.676Z,21.95
2019-04-21T13:15:27.504Z,21.97
2019-04-21T13:17:56.349Z,22.07
2019-04-21T13:20:25.307Z,21.84
2019-04-21T13:22:54.335Z,21.66
2019-04-21T13:25:23.518Z,21.62
2019-04-21T13:27:52.356Z,21.70
2019-04-21T13:30:20.226Z,21.72
2019-04-21T13:32:49.263Z,21.64
2019-04-21T13:35:17.154Z,21.65
2019-04-21T13:37:45.815Z,21.62
2019-04-21T13:40:34.151Z,21.72
2019-04-21T13:42:54.991Z,21.96
2019-04-21T13:45:18.414Z,21.68
2019-04-21T13:47:46.332Z,21.73
2019-04-21T13:50:15.281Z,21.94
2019-04-21T13:52:43.054Z,21.72
2019-04-21T13:55:11.847Z,21.79
2019-04-21T13:57:40.929Z,21.86
2019-04-21T14:00:09.034Z,21.90
2019-04-21T14:02:38.556Z,21.95
2019-04-21T14:05:08.527Z,21.79
2019-04-21T14:07:36.455Z,21.73
2019-04-21T14:10:07.142Z,21.58
2019-04-21T14:12:33.634Z,21.54
2019-04-21T14:15:02.302Z,21.50
2019-04-21T14:17:30.951Z,21.44
2019-04-21T14:19:59.444Z,21.37
2019-04-21T14:22:28.305Z,21.32
2019-04-21T14:24:56.329Z,21.48
2019-04-21T14:27:24.089Z,21.55
2019-04-21T14:29:51.731Z,21.49
2019-04-21T14:32:20.237Z,21.57
2019-04-21T14:34:50.222Z,21.60
2019-04-21T14:37:17.400Z,21.46
2019-04-21T14:39:52.743Z,21.67
2019-04-21T14:42:14.417Z,21.52
2019-04-21T14:44:42.934Z,21.48
2019-04-21T14:47:29.804Z,21.34
2019-04-21T14:50:22.280Z,21.34
2019-04-21T14:53:09.997Z,21.43
2019-04-21T14:55:39.510Z,21.39
2019-04-21T14:58:07.387Z,21.50
2019-04-21T15:00:35.199Z,21.39
2019-04-21T15:03:03.707Z,21.40
2019-04-21T15:05:31.401Z,21.48
2019-04-21T15:07:59.375Z,21.43
2019-04-21T15:10:30.576Z,21.24
2019-04-21T15:12:56.583Z,21.25
2019-04-21T15:15:25.565Z,21.29
2019-04-21T15:17:53.577Z,21.24
2019-04-21T15:20:22.031Z,21.04
2019-04-21T15:22:50.671Z,21.07
2019-04-21T15:25:18.438Z,21.08
2019-04-21T15:27:46.607Z,21.03
2019-04-21T15:30:14.465Z,21.08
2019-04-21T15:32:42.728Z,21.02
2019-04-21T15:35:11.047Z,21.12
2019-04-21T15:37:39.877Z,21.11
2019-04-21T15:40:18.209Z,21.13
2019-04-21T15:42:37.142Z,21.08
2019-04-21T15:45:06.289Z,21.10
2019-04-21T15:47:34.266Z,20.97
2019-04-21T15:50:07.386Z,21.02
2019-04-21T15:52:31.877Z,20.94
2019-04-21T15:55:06.192Z,20.79
2019-04-21T15:57:43.096Z,20.68
2019-04-21T16:00:34.808Z,20.96
2019-04-21T16:03:02.492Z,20.85
2019-04-21T16:05:30.829Z,20.92
2019-04-21T16:07:58.553Z,20.78
2019-04-21T16:10:34.337Z,20.78
2019-04-21T16:12:56.043Z,20.83
2019-04-21T16:15:23.915Z,20.91
2019-04-21T16:17:53.094Z,20.81
2019-04-21T16:20:21.850Z,20.79
2019-04-21T16:22:50.620Z,20.70
2019-04-21T16:25:18.838Z,20.72
2019-04-21T16:27:47.659Z,20.63
2019-04-21T16:30:15.686Z,20.72
2019-04-21T16:32:43.993Z,20.71
2019-04-21T16:35:14.311Z,20.63
2019-04-21T16:37:41.626Z,20.54
2019-04-21T16:40:09.574Z,20.47
2019-04-21T16:42:38.456Z,20.47
2019-04-21T16:45:07.292Z,20.54
2019-04-21T16:47:35.866Z,20.36
2019-04-21T16:50:03.610Z,20.34
2019-04-21T16:52:40.301Z,20.42
2019-04-21T16:55:16.889Z,20.26
2019-04-21T16:57:59.482Z,20.26
2019-04-21T17:00:31.236Z,20.25
2019-04-21T17:02:52.472Z,20.50
2019-04-21T17:05:20.393Z,20.71
2019-04-21T17:07:49.224Z,20.77
2019-04-21T17:10:17.076Z,20.75
2019-04-21T17:12:45.553Z,20.71
2019-04-21T17:15:29.379Z,20.60
2019-04-21T17:18:04.194Z,20.64
2019-04-21T17:20:25.075Z,20.55
2019-04-21T17:22:41.785Z,20.55
2019-04-21T17:25:10.537Z,20.54
2019-04-21T17:27:39.002Z,20.50
2019-04-21T17:30:06.842Z,20.49
2019-04-21T17:32:38.753Z,20.35
2019-04-21T17:35:04.066Z,20.40
2019-04-21T17:37:32.457Z,20.31
2019-04-21T17:40:03.430Z,20.20
2019-04-21T17:42:36.416Z,20.24
2019-04-21T17:44:59.409Z,20.10
2019-04-21T17:47:39.420Z,19.98
2019-04-21T17:50:04.276Z,19.82
2019-04-21T17:52:43.778Z,19.77
2019-04-21T17:55:19.792Z,19.66
2019-04-21T17:57:59.418Z,19.49
2019-04-21T18:00:53.532Z,19.54
2019-04-21T18:02:58.989Z,19.57
2019-04-21T18:05:32.023Z,19.47
2019-04-21T18:07:54.573Z,19.39
2019-04-21T18:10:29.365Z,19.26
2019-04-21T18:12:49.153Z,18.82
2019-04-21T18:15:22.035Z,18.63
2019-04-21T18:17:36.652Z,18.41
2019-04-21T18:20:05.981Z,18.47
2019-04-21T18:22:47.469Z,17.97
2019-04-21T18:25:28.022Z,17.90
2019-04-21T18:27:44.902Z,17.83
2019-04-21T18:30:12.859Z,17.45
2019-04-21T18:32:42.472Z,16.99
2019-04-21T18:35:20.565Z,16.94
2019-04-21T18:38:04.536Z,17.24
2019-04-21T18:40:29.718Z,16.86
2019-04-21T18:43:38.710Z,16.34
2019-04-21T18:46:03.573Z,16.39
2019-04-21T18:48:32.786Z,16.37
2019-04-21T18:51:06.255Z,15.94
2019-04-21T18:53:50.317Z,16.28
2019-04-21T18:56:06.536Z,16.18
2019-04-21T18:58:32.905Z,15.83
2019-04-21T19:01:08.801Z,16.00
2019-04-21T19:03:36.735Z,15.98
2019-04-21T19:06:08.144Z,15.34
2019-04-21T19:08:46.594Z,15.74
2019-04-21T19:11:18.993Z,15.64
2019-04-21T19:13:59.929Z,15.74
2019-04-21T19:19:01.607Z,15.14
2019-04-21T19:21:17.439Z,14.94
2019-04-21T19:23:52.148Z,15.08
2019-04-21T19:26:40.884Z,14.69
2019-04-21T19:28:58.800Z,14.78
2019-04-21T19:31:17.280Z,14.61
2019-04-21T19:33:36.432Z,14.83
2019-04-21T19:35:57.522Z,14.83
2019-04-21T19:38:35.027Z,14.62
2019-04-21T19:41:12.780Z,14.79
2019-04-21T19:43:46.019Z,14.43
2019-04-21T19:46:09.658Z,14.43
2019-04-21T19:48:44.461Z,14.04
2019-04-21T19:51:10.575Z,14.05
2019-04-21T19:53:37.129Z,13.77
2019-04-21T19:55:51.999Z,14.12
2019-04-21T19:58:27.560Z,13.92
2019-04-21T20:00:52.256Z,13.60
2019-04-21T20:03:18.771Z,13.52
2019-04-21T20:05:54.806Z,13.84
2019-04-21T20:08:31.957Z,13.87
2019-04-21T20:11:03.989Z,14.03
2019-04-21T20:13:45.370Z,14.31
2019-04-21T20:16:03.756Z,13.71
2019-04-21T20:18:23.174Z,13.71
2019-04-21T20:20:43.859Z,13.68
2019-04-21T20:23:18.764Z,13.68
2019-04-21T20:25:48.465Z,13.40
2019-04-21T20:28:21.389Z,13.57
2019-04-21T20:30:59.604Z,13.87
2019-04-21T20:33:48.501Z,13.86
2019-04-21T20:36:03.327Z,13.66
2019-04-21T20:38:19.074Z,13.63
2019-04-21T20:40:45.799Z,13.87
2019-04-21T20:43:28.502Z,12.76
2019-04-21T21:00:31.846Z,12.49
2019-04-21T21:03:01.169Z,12.70
2019-04-21T21:05:23.397Z,12.43
2019-04-21T21:07:57.006Z,12.70
2019-04-21T21:10:27.977Z,12.59
2019-04-21T21:13:07.580Z,12.63
2019-04-21T21:15:24.590Z,12.51
2019-04-21T21:18:01.409Z,12.45
2019-04-21T21:20:27.514Z,12.43
2019-04-21T21:22:50.656Z,12.41
2019-04-21T21:25:30.518Z,12.34
2019-04-21T21:27:45.165Z,12.37
2019-04-21T21:30:18.637Z,12.43
2019-04-21T21:32:49.378Z,12.18
2019-04-21T21:35:18.992Z,12.15
2019-04-21T21:37:54.884Z,12.14
2019-04-21T21:40:21.905Z,12.05
2019-04-21T21:42:35.347Z,12.23
2019-04-21T21:45:04.895Z,12.23
2019-04-21T21:47:47.556Z,12.03
2019-04-21T21:50:10.021Z,11.91
2019-04-21T21:52:39.799Z,12.09
2019-04-21T21:54:58.208Z,11.95
2019-04-21T21:57:26.164Z,11.86
2019-04-21T21:59:58.859Z,11.95
2019-04-21T22:02:33.086Z,11.91
2019-04-21T22:05:01.163Z,11.91
2019-04-21T22:07:26.913Z,11.98
2019-04-21T22:09:52.447Z,11.94
2019-04-21T22:12:20.315Z,11.84
2019-04-21T22:14:50.453Z,11.92
2019-04-21T22:17:32.769Z,11.99
2019-04-21T22:20:12.237Z,11.91
2019-04-21T22:22:32.539Z,11.71
2019-04-21T22:24:55.685Z,11.85
2019-04-21T22:27:14.931Z,11.51
2019-04-21T22:29:48.222Z,11.63
2019-04-21T22:32:17.466Z,11.72
2019-04-21T22:34:48.698Z,11.44
2019-04-21T22:37:25.946Z,11.25
2019-04-21T22:39:54.351Z,11.01
2019-04-21T22:42:17.938Z,11.24
2019-04-21T22:44:40.343Z,11.30
2019-04-21T22:47:15.674Z,11.17
2019-04-21T22:49:38.774Z,11.18
2019-04-21T22:52:11.075Z,11.07
2019-04-21T22:54:40.919Z,10.99
2019-04-21T22:57:12.896Z,10.99
2019-04-21T22:59:35.637Z,10.96
2019-04-21T23:02:06.370Z,11.03
2019-04-21T23:04:43.130Z,10.72
2019-04-21T23:07:11.268Z,10.54
2019-04-21T23:09:32.925Z,10.44
2019-04-21T23:12:01.903Z,10.50
2019-04-21T23:14:33.943Z,10.51
2019-04-21T23:17:22.944Z,10.57
2019-04-21T23:19:42.217Z,10.55
2019-04-21T23:22:16.137Z,10.58
2019-04-21T23:24:59.532Z,10.47
2019-04-21T23:27:11.879Z,10.27
2019-04-21T23:29:52.807Z,10.13
2019-04-21T23:32:14.931Z,9.82
2019-04-21T23:34:30.787Z,9.59
2019-04-21T23:37:04.392Z,9.96
2019-04-21T23:39:29.005Z,10.17
2019-04-21T23:41:56.954Z,9.93
2019-04-21T23:44:24.119Z,9.84
2019-04-21T23:46:57.583Z,9.71
2019-04-21T23:49:34.558Z,9.57
2019-04-21T23:52:00.347Z,9.45
2019-04-21T23:54:20.304Z,9.48
2019-04-21T23:56:49.255Z,9.59
2019-04-21T23:59:18.045Z,9.76
